sensor_id;sensor_type;location;lat;lon;timestamp;temperature;humidity
71297;SHT31;59082;50.658;4.608;2023-02-23T05:06:52;7.60;99.99
71297;SHT31;59082;50.658;4.608;2023-02-23T05:09:18;7.62;99.99
71297;SHT31;59082;50.658;4.608;2023-02-23T05:11:45;7.63;99.99
71297;SHT31;59082;50.658;4.608;2023-02-23T05:14:10;7.57;99.99
71297;SHT31;59082;50.658;4.608;2023-02-23T05:16:37;7.56;99.99
71297;SHT31;59082;50.658;4.608;2023-02-23T05:19:03;7.60;99.99
71297;SHT31;59082;50.658;4.608;2023-02-23T05:21:29;7.57;99.99
71297;SHT31;59082;50.658;4.608;2023-02-23T05:23:54;7.59;99.99
71297;SHT31;59082;50.658;4.608;2023-02-23T05:26:21;7.60;99.99
71297;SHT31;59082;50.658;4.608;2023-02-23T05:28:47;7.60;99.99
71297;SHT31;59082;50.658;4.608;2023-02-23T05:31:13;7.57;99.99
71297;SHT31;59082;50.658;4.608;2023-02-23T05:33:39;7.56;99.99
71297;SHT31;59082;50.658;4.608;2023-02-23T05:36:10;7.56;99.99
71297;SHT31;59082;50.658;4.608;2023-02-23T05:38:36;7.60;99.99
71297;SHT31;59082;50.658;4.608;2023-02-23T05:41:12;7.59;99.99
71297;SHT31;59082;50.658;4.608;2023-02-23T05:43:38;7.60;99.99
71297;SHT31;59082;50.658;4.608;2023-02-23T05:46:11;7.59;99.99
71297;SHT31;59082;50.658;4.608;2023-02-23T05:48:37;7.62;99.99
71297;SHT31;59082;50.658;4.608;2023-02-23T05:51:05;7.73;99.99
71297;SHT31;59082;50.658;4.608;2023-02-23T05:53:30;7.67;99.99
71297;SHT31;59082;50.658;4.608;2023-02-23T05:55:56;7.67;99.99
71297;SHT31;59082;50.658;4.608;2023-02-23T05:58:22;7.70;99.99
71297;SHT31;59082;50.658;4.608;2023-02-23T06:00:47;7.64;99.99
71297;SHT31;59082;50.658;4.608;2023-02-23T06:03:13;7.64;99.99
71297;SHT31;59082;50.658;4.608;2023-02-23T06:05:39;7.62;99.99
71297;SHT31;59082;50.658;4.608;2023-02-23T06:08:05;7.59;99.99
71297;SHT31;59082;50.658;4.608;2023-02-23T06:10:31;7.60;99.99
71297;SHT31;59082;50.658;4.608;2023-02-23T06:12:59;7.62;99.99
71297;SHT31;59082;50.658;4.608;2023-02-23T06:15:24;7.57;99.99
71297;SHT31;59082;50.658;4.608;2023-02-23T06:17:50;7.50;99.99
71297;SHT31;59082;50.658;4.608;2023-02-23T06:20:16;7.53;99.99
71297;SHT31;59082;50.658;4.608;2023-02-23T06:22:41;7.49;99.99
71297;SHT31;59082;50.658;4.608;2023-02-23T06:25:07;7.47;99.99
71297;SHT31;59082;50.658;4.608;2023-02-23T06:27:38;7.45;99.99
71297;SHT31;59082;50.658;4.608;2023-02-23T06:30:05;7.45;99.99
71297;SHT31;59082;50.658;4.608;2023-02-23T06:32:30;7.42;99.99
71297;SHT31;59082;50.658;4.608;2023-02-23T06:34:56;7.40;99.99
71297;SHT31;59082;50.658;4.608;2023-02-23T06:37:22;7.42;99.99
71297;SHT31;59082;50.658;4.608;2023-02-23T06:39:47;7.37;99.99
71297;SHT31;59082;50.658;4.608;2023-02-23T06:42:15;7.37;99.99
71297;SHT31;59082;50.658;4.608;2023-02-23T06:44:41;7.46;99.99
71297;SHT31;59082;50.658;4.608;2023-02-23T06:47:06;7.42;99.99
71297;SHT31;59082;50.658;4.608;2023-02-23T06:49:35;7.46;99.99
71297;SHT31;59082;50.658;4.608;2023-02-23T06:52:01;7.43;99.99
71297;SHT31;59082;50.658;4.608;2023-02-23T06:54:27;7.40;99.99
71297;SHT31;59082;50.658;4.608;2023-02-23T06:56:53;7.49;99.99
71297;SHT31;59082;50.658;4.608;2023-02-23T06:59:19;7.39;99.99
71297;SHT31;59082;50.658;4.608;2023-02-23T07:01:45;7.46;99.99
71297;SHT31;59082;50.658;4.608;2023-02-23T07:04:11;7.47;99.99
71297;SHT31;59082;50.658;4.608;2023-02-23T07:06:37;7.47;99.99
71297;SHT31;59082;50.658;4.608;2023-02-23T07:09:03;7.52;99.99
71297;SHT31;59082;50.658;4.608;2023-02-23T07:11:29;7.53;99.99
71297;SHT31;59082;50.658;4.608;2023-02-23T07:13:59;7.55;99.99
71297;SHT31;59082;50.658;4.608;2023-02-23T07:16:26;7.50;99.99
71297;SHT31;59082;50.658;4.608;2023-02-23T07:18:53;7.53;99.99
71297;SHT31;59082;50.658;4.608;2023-02-23T07:21:18;7.56;99.99
71297;SHT31;59082;50.658;4.608;2023-02-23T07:23:45;7.55;99.99
71297;SHT31;59082;50.658;4.608;2023-02-23T07:26:12;7.55;99.99
71297;SHT31;59082;50.658;4.608;2023-02-23T07:28:40;7.56;99.99
71297;SHT31;59082;50.658;4.608;2023-02-23T07:31:06;7.56;99.99
71297;SHT31;59082;50.658;4.608;2023-02-23T07:33:31;7.56;99.99
71297;SHT31;59082;50.658;4.608;2023-02-23T07:35:57;7.60;99.99
71297;SHT31;59082;50.658;4.608;2023-02-23T07:38:22;7.66;99.99
71297;SHT31;59082;50.658;4.608;2023-02-23T07:40:51;7.66;99.99
71297;SHT31;59082;50.658;4.608;2023-02-23T07:43:17;7.63;99.99
71297;SHT31;59082;50.658;4.608;2023-02-23T07:45:44;7.66;99.99
71297;SHT31;59082;50.658;4.608;2023-02-23T07:48:10;7.67;99.99
71297;SHT31;59082;50.658;4.608;2023-02-23T07:50:35;7.81;99.99
71297;SHT31;59082;50.658;4.608;2023-02-23T07:53:01;7.84;99.99
71297;SHT31;59082;50.658;4.608;2023-02-23T07:55:27;7.90;99.99
71297;SHT31;59082;50.658;4.608;2023-02-23T07:57:52;7.83;99.99
71297;SHT31;59082;50.658;4.608;2023-02-23T08:00:30;7.91;99.99
71297;SHT31;59082;50.658;4.608;2023-02-23T08:02:56;7.95;99.99
71297;SHT31;59082;50.658;4.608;2023-02-23T08:05:21;7.94;99.99
71297;SHT31;59082;50.658;4.608;2023-02-23T08:07:47;7.99;99.99
71297;SHT31;59082;50.658;4.608;2023-02-23T08:10:23;7.99;99.99
71297;SHT31;59082;50.658;4.608;2023-02-23T08:12:48;7.98;99.99
71297;SHT31;59082;50.658;4.608;2023-02-23T08:15:14;7.94;99.99
71297;SHT31;59082;50.658;4.608;2023-02-23T08:17:40;7.97;99.99
71297;SHT31;59082;50.658;4.608;2023-02-23T08:20:06;7.94;99.99
71297;SHT31;59082;50.658;4.608;2023-02-23T08:22:32;7.94;99.99
71297;SHT31;59082;50.658;4.608;2023-02-23T08:24:58;7.93;99.99
71297;SHT31;59082;50.658;4.608;2023-02-23T08:27:24;7.87;99.99
71297;SHT31;59082;50.658;4.608;2023-02-23T08:29:50;7.91;99.99
71297;SHT31;59082;50.658;4.608;2023-02-23T08:32:18;7.94;99.99
71297;SHT31;59082;50.658;4.608;2023-02-23T08:34:44;7.90;99.99
71297;SHT31;59082;50.658;4.608;2023-02-23T08:37:10;7.87;99.99
71297;SHT31;59082;50.658;4.608;2023-02-23T08:39:36;7.87;99.99
71297;SHT31;59082;50.658;4.608;2023-02-23T08:42:02;8.04;99.99
71297;SHT31;59082;50.658;4.608;2023-02-23T08:44:28;8.14;99.99
71297;SHT31;59082;50.658;4.608;2023-02-23T08:46:54;8.25;99.99
71297;SHT31;59082;50.658;4.608;2023-02-23T08:49:21;8.36;99.99
71297;SHT31;59082;50.658;4.608;2023-02-23T08:51:46;8.45;99.99
71297;SHT31;59082;50.658;4.608;2023-02-23T08:54:12;8.43;99.99
71297;SHT31;59082;50.658;4.608;2023-02-23T08:56:42;8.39;99.99
71297;SHT31;59082;50.658;4.608;2023-02-23T08:59:09;8.42;99.99
71297;SHT31;59082;50.658;4.608;2023-02-23T09:01:35;8.41;99.99
71297;SHT31;59082;50.658;4.608;2023-02-23T09:04:02;8.32;99.99
71297;SHT31;59082;50.658;4.608;2023-02-23T09:06:28;8.49;99.99
71297;SHT31;59082;50.658;4.608;2023-02-23T09:08:54;8.54;99.99
71297;SHT31;59082;50.658;4.608;2023-02-23T09:11:21;8.41;99.99
71297;SHT31;59082;50.658;4.608;2023-02-23T09:13:47;8.39;99.99
71297;SHT31;59082;50.658;4.608;2023-02-23T09:16:14;8.41;99.99
71297;SHT31;59082;50.658;4.608;2023-02-23T09:18:40;8.26;99.99
71297;SHT31;59082;50.658;4.608;2023-02-23T09:21:09;8.53;99.99
71297;SHT31;59082;50.658;4.608;2023-02-23T09:23:38;8.64;99.99
71297;SHT31;59082;50.658;4.608;2023-02-23T09:26:05;9.03;99.99
71297;SHT31;59082;50.658;4.608;2023-02-23T09:28:31;9.24;99.99
71297;SHT31;59082;50.658;4.608;2023-02-23T09:31:03;9.27;99.99
71297;SHT31;59082;50.658;4.608;2023-02-23T09:33:30;9.75;99.99
71297;SHT31;59082;50.658;4.608;2023-02-23T09:35:56;9.70;99.99
71297;SHT31;59082;50.658;4.608;2023-02-23T09:38:21;9.72;99.99
71297;SHT31;59082;50.658;4.608;2023-02-23T09:40:50;10.31;99.99
71297;SHT31;59082;50.658;4.608;2023-02-23T09:43:37;10.59;99.99
71297;SHT31;59082;50.658;4.608;2023-02-23T09:48:58;10.81;99.99
71297;SHT31;59082;50.658;4.608;2023-02-23T09:51:25;10.62;99.99
71297;SHT31;59082;50.658;4.608;2023-02-23T09:53:55;10.45;99.99
71297;SHT31;59082;50.658;4.608;2023-02-23T09:56:33;10.25;99.99
71297;SHT31;59082;50.658;4.608;2023-02-23T09:59:01;10.38;99.99
71297;SHT31;59082;50.658;4.608;2023-02-23T10:04:31;10.61;99.99
71297;SHT31;59082;50.658;4.608;2023-02-23T10:15:46;11.52;99.99
71297;SHT31;59082;50.658;4.608;2023-02-23T10:23:53;11.90;99.99
71297;SHT31;59082;50.658;4.608;2023-02-23T10:26:24;13.44;96.91
71297;SHT31;59082;50.658;4.608;2023-02-23T10:28:53;13.30;95.12
71297;SHT31;59082;50.658;4.608;2023-02-23T10:31:35;12.26;96.42
71297;SHT31;59082;50.658;4.608;2023-02-23T10:34:08;12.21;99.11
71297;SHT31;59082;50.658;4.608;2023-02-23T10:36:38;12.30;98.51
71297;SHT31;59082;50.658;4.608;2023-02-23T10:39:07;11.54;99.21
71297;SHT31;59082;50.658;4.608;2023-02-23T10:41:34;11.64;99.99
71297;SHT31;59082;50.658;4.608;2023-02-23T10:44:00;11.62;99.84
71297;SHT31;59082;50.658;4.608;2023-02-23T10:46:34;11.50;99.99
71297;SHT31;59082;50.658;4.608;2023-02-23T10:49:01;11.38;99.99
71297;SHT31;59082;50.658;4.608;2023-02-23T10:51:31;11.13;99.99
71297;SHT31;59082;50.658;4.608;2023-02-23T10:53:57;10.97;99.99
71297;SHT31;59082;50.658;4.608;2023-02-23T10:56:23;11.07;99.99
71297;SHT31;59082;50.658;4.608;2023-02-23T10:58:51;11.21;99.99
71297;SHT31;59082;50.658;4.608;2023-02-23T11:04:23;11.42;99.98
71297;SHT31;59082;50.658;4.608;2023-02-23T11:06:50;11.59;99.30
71297;SHT31;59082;50.658;4.608;2023-02-23T11:14:41;11.95;99.00
71297;SHT31;59082;50.658;4.608;2023-02-23T11:17:27;11.57;99.52
71297;SHT31;59082;50.658;4.608;2023-02-23T11:20:01;11.64;99.73
71297;SHT31;59082;50.658;4.608;2023-02-23T11:22:34;11.62;99.87
71297;SHT31;59082;50.658;4.608;2023-02-23T11:25:02;11.31;99.61
71297;SHT31;59082;50.658;4.608;2023-02-23T11:27:35;10.96;99.99
71297;SHT31;59082;50.658;4.608;2023-02-23T11:30:04;10.88;99.99
71297;SHT31;59082;50.658;4.608;2023-02-23T11:32:33;10.69;99.99
71297;SHT31;59082;50.658;4.608;2023-02-23T11:37:47;10.45;99.99
71297;SHT31;59082;50.658;4.608;2023-02-23T11:40:20;10.32;99.99
71297;SHT31;59082;50.658;4.608;2023-02-23T11:43:11;10.38;99.99
71297;SHT31;59082;50.658;4.608;2023-02-23T11:45:50;10.46;99.99
71297;SHT31;59082;50.658;4.608;2023-02-23T11:48:22;10.65;99.99
71297;SHT31;59082;50.658;4.608;2023-02-23T11:50:51;11.11;99.99
71297;SHT31;59082;50.658;4.608;2023-02-23T11:53:23;10.83;99.72
71297;SHT31;59082;50.658;4.608;2023-02-23T11:55:53;10.93;99.31
71297;SHT31;59082;50.658;4.608;2023-02-23T12:01:13;10.96;99.87
71297;SHT31;59082;50.658;4.608;2023-02-23T12:03:59;11.10;99.13
71297;SHT31;59082;50.658;4.608;2023-02-23T12:08:57;10.80;99.99
71297;SHT31;59082;50.658;4.608;2023-02-23T12:11:29;10.59;99.99
71297;SHT31;59082;50.658;4.608;2023-02-23T12:14:11;10.49;99.99
71297;SHT31;59082;50.658;4.608;2023-02-23T12:16:54;10.30;99.99
71297;SHT31;59082;50.658;4.608;2023-02-23T12:19:39;9.79;99.99
71297;SHT31;59082;50.658;4.608;2023-02-23T12:22:28;10.03;99.99
71297;SHT31;59082;50.658;4.608;2023-02-23T12:27:43;10.14;99.99
71297;SHT31;59082;50.658;4.608;2023-02-23T12:32:54;10.24;99.99
71297;SHT31;59082;50.658;4.608;2023-02-23T12:35:30;10.44;99.99
71297;SHT31;59082;50.658;4.608;2023-02-23T12:41:10;10.69;99.99
71297;SHT31;59082;50.658;4.608;2023-02-23T12:43:49;10.88;99.99
71297;SHT31;59082;50.658;4.608;2023-02-23T12:46:24;10.95;99.99
71297;SHT31;59082;50.658;4.608;2023-02-23T12:49:05;11.18;99.99
71297;SHT31;59082;50.658;4.608;2023-02-23T12:51:43;11.54;99.70
71297;SHT31;59082;50.658;4.608;2023-02-23T12:54:12;11.83;98.39
71297;SHT31;59082;50.658;4.608;2023-02-23T12:56:53;11.82;97.99
71297;SHT31;59082;50.658;4.608;2023-02-23T13:02:12;11.39;98.59
71297;SHT31;59082;50.658;4.608;2023-02-23T13:05:19;11.06;99.45
71297;SHT31;59082;50.658;4.608;2023-02-23T13:13:49;10.41;99.99
71297;SHT31;59082;50.658;4.608;2023-02-23T13:16:22;10.34;99.99
71297;SHT31;59082;50.658;4.608;2023-02-23T13:19:28;10.28;99.99
71297;SHT31;59082;50.658;4.608;2023-02-23T13:24:35;10.30;99.99
71297;SHT31;59082;50.658;4.608;2023-02-23T13:27:21;10.24;99.99
71297;SHT31;59082;50.658;4.608;2023-02-23T13:29:51;10.35;99.99
71297;SHT31;59082;50.658;4.608;2023-02-23T13:32:28;10.35;99.99
71297;SHT31;59082;50.658;4.608;2023-02-23T13:34:58;10.40;99.99
71297;SHT31;59082;50.658;4.608;2023-02-23T13:37:35;10.41;99.99
71297;SHT31;59082;50.658;4.608;2023-02-23T13:51:08;10.18;99.99
71297;SHT31;59082;50.658;4.608;2023-02-23T13:53:45;10.24;99.99
71297;SHT31;59082;50.658;4.608;2023-02-23T13:56:19;10.22;99.99
71297;SHT31;59082;50.658;4.608;2023-02-23T13:59:07;10.28;99.99
71297;SHT31;59082;50.658;4.608;2023-02-23T14:01:39;10.40;99.99
71297;SHT31;59082;50.658;4.608;2023-02-23T14:04:20;10.58;99.92
71297;SHT31;59082;50.658;4.608;2023-02-23T14:09:54;10.72;99.87
71297;SHT31;59082;50.658;4.608;2023-02-23T14:12:31;10.70;99.47
71297;SHT31;59082;50.658;4.608;2023-02-23T14:15:28;10.83;99.52
71297;SHT31;59082;50.658;4.608;2023-02-23T14:20:51;10.88;99.33
71297;SHT31;59082;50.658;4.608;2023-02-23T14:28:23;10.73;99.77
71297;SHT31;59082;50.658;4.608;2023-02-23T14:31:01;10.75;99.47
71297;SHT31;59082;50.658;4.608;2023-02-23T14:41:27;10.70;98.82
71297;SHT31;59082;50.658;4.608;2023-02-23T14:46:32;10.69;99.10
71297;SHT31;59082;50.658;4.608;2023-02-23T14:49:06;10.49;99.60
71297;SHT31;59082;50.658;4.608;2023-02-23T14:51:39;10.38;99.55
71297;SHT31;59082;50.658;4.608;2023-02-23T14:54:41;10.34;99.99
71297;SHT31;59082;50.658;4.608;2023-02-23T14:57:24;10.31;99.74
71297;SHT31;59082;50.658;4.608;2023-02-23T14:59:53;10.13;99.99
71297;SHT31;59082;50.658;4.608;2023-02-23T15:02:23;10.00;99.99
71297;SHT31;59082;50.658;4.608;2023-02-23T15:04:49;10.00;99.99
71297;SHT31;59082;50.658;4.608;2023-02-23T15:07:27;10.00;99.99
71297;SHT31;59082;50.658;4.608;2023-02-23T15:09:56;9.90;99.99
71297;SHT31;59082;50.658;4.608;2023-02-23T15:12:24;9.90;99.99
71297;SHT31;59082;50.658;4.608;2023-02-23T15:14:56;9.79;99.99
71297;SHT31;59082;50.658;4.608;2023-02-23T15:17:25;9.70;99.99
71297;SHT31;59082;50.658;4.608;2023-02-23T15:19:58;9.59;99.99
71297;SHT31;59082;50.658;4.608;2023-02-23T15:22:32;9.52;99.99
71297;SHT31;59082;50.658;4.608;2023-02-23T15:25:00;9.35;99.99
71297;SHT31;59082;50.658;4.608;2023-02-23T15:27:38;9.34;99.99
71297;SHT31;59082;50.658;4.608;2023-02-23T15:32:44;9.36;99.99
71297;SHT31;59082;50.658;4.608;2023-02-23T15:35:11;9.28;99.99
71297;SHT31;59082;50.658;4.608;2023-02-23T15:37:56;9.36;99.99
71297;SHT31;59082;50.658;4.608;2023-02-23T15:40:24;9.36;99.99
71297;SHT31;59082;50.658;4.608;2023-02-23T15:42:54;9.29;99.99
71297;SHT31;59082;50.658;4.608;2023-02-23T15:47:56;9.21;99.99
71297;SHT31;59082;50.658;4.608;2023-02-23T15:50:25;9.12;99.99
71297;SHT31;59082;50.658;4.608;2023-02-23T15:52:58;9.14;99.99
71297;SHT31;59082;50.658;4.608;2023-02-23T15:55:27;9.03;99.99
71297;SHT31;59082;50.658;4.608;2023-02-23T15:57:55;9.07;99.99
71297;SHT31;59082;50.658;4.608;2023-02-23T16:00:39;9.04;99.99
71297;SHT31;59082;50.658;4.608;2023-02-23T16:03:07;8.98;99.99
71297;SHT31;59082;50.658;4.608;2023-02-23T16:05:34;9.00;99.99
71297;SHT31;59082;50.658;4.608;2023-02-23T16:08:14;8.97;99.99
71297;SHT31;59082;50.658;4.608;2023-02-23T16:10:48;8.90;99.99
71297;SHT31;59082;50.658;4.608;2023-02-23T16:13:16;8.91;99.99
71297;SHT31;59082;50.658;4.608;2023-02-23T16:15:44;8.85;99.99
71297;SHT31;59082;50.658;4.608;2023-02-23T16:18:40;8.85;99.99
71297;SHT31;59082;50.658;4.608;2023-02-23T16:21:13;8.81;99.99
71297;SHT31;59082;50.658;4.608;2023-02-23T16:23:44;8.74;99.99
71297;SHT31;59082;50.658;4.608;2023-02-23T16:26:25;8.77;99.99
71297;SHT31;59082;50.658;4.608;2023-02-23T16:28:57;8.73;99.99
71297;SHT31;59082;50.658;4.608;2023-02-23T16:31:47;8.62;99.99
71297;SHT31;59082;50.658;4.608;2023-02-23T16:37:00;8.62;99.99
71297;SHT31;59082;50.658;4.608;2023-02-23T16:39:29;8.57;99.99
71297;SHT31;59082;50.658;4.608;2023-02-23T16:41:56;8.59;99.99
71297;SHT31;59082;50.658;4.608;2023-02-23T16:44:24;8.56;99.99
71297;SHT31;59082;50.658;4.608;2023-02-23T16:49:28;8.49;99.99
71297;SHT31;59082;50.658;4.608;2023-02-23T16:51:58;8.46;99.99
71297;SHT31;59082;50.658;4.608;2023-02-23T16:54:24;8.48;99.99
71297;SHT31;59082;50.658;4.608;2023-02-23T16:56:50;8.45;99.99
71297;SHT31;59082;50.658;4.608;2023-02-23T16:59:21;8.39;99.99
71297;SHT31;59082;50.658;4.608;2023-02-23T17:01:47;8.41;99.99
71297;SHT31;59082;50.658;4.608;2023-02-23T17:04:16;8.36;99.99
71297;SHT31;59082;50.658;4.608;2023-02-23T17:06:43;8.35;99.99
71297;SHT31;59082;50.658;4.608;2023-02-23T17:09:10;8.33;99.99
71297;SHT31;59082;50.658;4.608;2023-02-23T17:11:36;8.33;99.99
71297;SHT31;59082;50.658;4.608;2023-02-23T17:14:01;8.31;99.99
71297;SHT31;59082;50.658;4.608;2023-02-23T17:16:27;8.29;99.99
71297;SHT31;59082;50.658;4.608;2023-02-23T17:18:52;8.36;99.99
71297;SHT31;59082;50.658;4.608;2023-02-23T17:21:19;8.36;99.99
71297;SHT31;59082;50.658;4.608;2023-02-23T17:23:50;8.33;99.99
71297;SHT31;59082;50.658;4.608;2023-02-23T17:26:22;8.43;99.99
71297;SHT31;59082;50.658;4.608;2023-02-23T17:28:51;8.42;99.99
71297;SHT31;59082;50.658;4.608;2023-02-23T17:31:18;8.31;99.99
71297;SHT31;59082;50.658;4.608;2023-02-23T17:33:44;8.24;99.99
71297;SHT31;59082;50.658;4.608;2023-02-23T17:36:13;8.18;99.99
71297;SHT31;59082;50.658;4.608;2023-02-23T17:38:40;8.09;99.99
71297;SHT31;59082;50.658;4.608;2023-02-23T17:41:11;8.02;99.99
71297;SHT31;59082;50.658;4.608;2023-02-23T17:43:36;8.04;99.99
71297;SHT31;59082;50.658;4.608;2023-02-23T17:46:03;8.02;99.99
71297;SHT31;59082;50.658;4.608;2023-02-23T17:48:28;8.05;99.99
71297;SHT31;59082;50.658;4.608;2023-02-23T17:50:56;8.04;99.99
71297;SHT31;59082;50.658;4.608;2023-02-23T17:53:23;8.08;99.99
71297;SHT31;59082;50.658;4.608;2023-02-23T17:55:50;8.06;99.99
71297;SHT31;59082;50.658;4.608;2023-02-23T17:58:15;8.06;99.99
71297;SHT31;59082;50.658;4.608;2023-02-23T18:00:42;8.05;99.99
71297;SHT31;59082;50.658;4.608;2023-02-23T18:03:07;8.02;99.99
71297;SHT31;59082;50.658;4.608;2023-02-23T18:05:33;8.01;99.99
71297;SHT31;59082;50.658;4.608;2023-02-23T18:07:58;8.02;99.99
71297;SHT31;59082;50.658;4.608;2023-02-23T18:10:24;8.04;99.99
71297;SHT31;59082;50.658;4.608;2023-02-23T18:12:53;8.04;99.99
71297;SHT31;59082;50.658;4.608;2023-02-23T18:15:21;8.08;99.99
71297;SHT31;59082;50.658;4.608;2023-02-23T18:17:47;8.11;99.99
71297;SHT31;59082;50.658;4.608;2023-02-23T18:20:13;8.06;99.99
71297;SHT31;59082;50.658;4.608;2023-02-23T18:22:43;8.06;99.99
71297;SHT31;59082;50.658;4.608;2023-02-23T18:25:29;8.05;99.99
71297;SHT31;59082;50.658;4.608;2023-02-23T18:27:55;8.04;99.99
71297;SHT31;59082;50.658;4.608;2023-02-23T18:30:24;8.01;99.99
71297;SHT31;59082;50.658;4.608;2023-02-23T18:32:55;7.99;99.99
71297;SHT31;59082;50.658;4.608;2023-02-23T18:35:22;7.95;99.99
71297;SHT31;59082;50.658;4.608;2023-02-23T18:37:48;7.91;99.99
71297;SHT31;59082;50.658;4.608;2023-02-23T18:40:14;7.88;99.99
71297;SHT31;59082;50.658;4.608;2023-02-23T18:42:39;7.84;99.99
71297;SHT31;59082;50.658;4.608;2023-02-23T18:45:06;7.84;99.99
71297;SHT31;59082;50.658;4.608;2023-02-23T18:47:32;7.80;99.99
71297;SHT31;59082;50.658;4.608;2023-02-23T18:49:58;7.78;99.99
71297;SHT31;59082;50.658;4.608;2023-02-23T18:52:26;7.76;99.99
71297;SHT31;59082;50.658;4.608;2023-02-23T18:54:51;7.78;99.99
71297;SHT31;59082;50.658;4.608;2023-02-23T18:57:17;7.78;99.99
71297;SHT31;59082;50.658;4.608;2023-02-23T18:59:42;7.71;99.99
71297;SHT31;59082;50.658;4.608;2023-02-23T19:02:09;7.73;99.99
71297;SHT31;59082;50.658;4.608;2023-02-23T19:04:34;7.73;99.99
71297;SHT31;59082;50.658;4.608;2023-02-23T19:07:00;7.69;99.99
71297;SHT31;59082;50.658;4.608;2023-02-23T19:09:26;7.69;99.99
71297;SHT31;59082;50.658;4.608;2023-02-23T19:11:51;7.69;99.99
71297;SHT31;59082;50.658;4.608;2023-02-23T19:14:18;7.70;99.99
71297;SHT31;59082;50.658;4.608;2023-02-23T19:16:45;7.69;99.99
71297;SHT31;59082;50.658;4.608;2023-02-23T19:19:11;7.67;99.99
71297;SHT31;59082;50.658;4.608;2023-02-23T19:21:38;7.64;99.99
71297;SHT31;59082;50.658;4.608;2023-02-23T19:24:04;7.66;99.99
71297;SHT31;59082;50.658;4.608;2023-02-23T19:26:31;7.62;99.99
71297;SHT31;59082;50.658;4.608;2023-02-23T19:28:58;7.63;99.99
71297;SHT31;59082;50.658;4.608;2023-02-23T19:31:24;7.63;99.99
71297;SHT31;59082;50.658;4.608;2023-02-23T19:33:52;7.62;99.99
71297;SHT31;59082;50.658;4.608;2023-02-23T19:36:20;7.63;99.99
71297;SHT31;59082;50.658;4.608;2023-02-23T19:38:45;7.63;99.99
71297;SHT31;59082;50.658;4.608;2023-02-23T19:41:14;7.60;99.99
71297;SHT31;59082;50.658;4.608;2023-02-23T19:43:40;7.64;99.99
71297;SHT31;59082;50.658;4.608;2023-02-23T19:46:08;7.59;99.99
71297;SHT31;59082;50.658;4.608;2023-02-23T19:48:35;7.59;99.99
71297;SHT31;59082;50.658;4.608;2023-02-23T19:51:01;7.55;99.99
71297;SHT31;59082;50.658;4.608;2023-02-23T19:53:27;7.56;99.99
71297;SHT31;59082;50.658;4.608;2023-02-23T19:58:25;7.56;99.99
71297;SHT31;59082;50.658;4.608;2023-02-23T20:00:53;7.55;99.99
71297;SHT31;59082;50.658;4.608;2023-02-23T20:03:26;7.52;99.99
71297;SHT31;59082;50.658;4.608;2023-02-23T20:05:54;7.52;99.99
71297;SHT31;59082;50.658;4.608;2023-02-23T20:08:20;7.50;99.99
71297;SHT31;59082;50.658;4.608;2023-02-23T20:10:46;7.45;99.99
71297;SHT31;59082;50.658;4.608;2023-02-23T20:13:12;7.46;99.99
71297;SHT31;59082;50.658;4.608;2023-02-23T20:15:37;7.49;99.99
71297;SHT31;59082;50.658;4.608;2023-02-23T20:18:03;7.52;99.99
71297;SHT31;59082;50.658;4.608;2023-02-23T20:20:29;7.53;99.99
71297;SHT31;59082;50.658;4.608;2023-02-23T20:22:56;7.50;99.99
71297;SHT31;59082;50.658;4.608;2023-02-23T20:25:23;7.50;99.99
71297;SHT31;59082;50.658;4.608;2023-02-23T20:27:49;7.52;99.99
71297;SHT31;59082;50.658;4.608;2023-02-23T20:30:16;7.52;99.99
71297;SHT31;59082;50.658;4.608;2023-02-23T20:32:43;7.55;99.99
71297;SHT31;59082;50.658;4.608;2023-02-23T20:35:09;7.55;99.99
71297;SHT31;59082;50.658;4.608;2023-02-23T20:37:38;7.55;99.99
71297;SHT31;59082;50.658;4.608;2023-02-23T20:40:05;7.55;99.99
71297;SHT31;59082;50.658;4.608;2023-02-23T20:42:40;7.53;99.99
71297;SHT31;59082;50.658;4.608;2023-02-23T20:45:07;7.50;99.99
71297;SHT31;59082;50.658;4.608;2023-02-23T20:47:33;7.57;99.99
71297;SHT31;59082;50.658;4.608;2023-02-23T20:49:59;7.56;99.99
71297;SHT31;59082;50.658;4.608;2023-02-23T20:52:25;7.57;99.99
71297;SHT31;59082;50.658;4.608;2023-02-23T20:54:51;7.57;99.99
71297;SHT31;59082;50.658;4.608;2023-02-23T20:57:16;7.56;99.99
71297;SHT31;59082;50.658;4.608;2023-02-23T20:59:42;7.52;99.99
71297;SHT31;59082;50.658;4.608;2023-02-23T21:02:09;7.57;99.99
71297;SHT31;59082;50.658;4.608;2023-02-23T21:04:38;7.53;99.99
71297;SHT31;59082;50.658;4.608;2023-02-23T21:07:05;7.50;99.99
71297;SHT31;59082;50.658;4.608;2023-02-23T21:09:31;7.46;99.99
71297;SHT31;59082;50.658;4.608;2023-02-23T21:11:57;7.43;99.99
71297;SHT31;59082;50.658;4.608;2023-02-23T21:14:23;7.45;99.99
71297;SHT31;59082;50.658;4.608;2023-02-23T21:16:48;7.42;99.99
71297;SHT31;59082;50.658;4.608;2023-02-23T21:19:16;7.40;99.99
71297;SHT31;59082;50.658;4.608;2023-02-23T21:21:44;7.40;99.99
71297;SHT31;59082;50.658;4.608;2023-02-23T21:24:11;7.39;99.99
71297;SHT31;59082;50.658;4.608;2023-02-23T21:26:37;7.40;99.99
71297;SHT31;59082;50.658;4.608;2023-02-23T21:29:03;7.39;99.99
71297;SHT31;59082;50.658;4.608;2023-02-23T21:31:29;7.37;99.99
71297;SHT31;59082;50.658;4.608;2023-02-23T21:33:55;7.39;99.99
71297;SHT31;59082;50.658;4.608;2023-02-23T21:36:21;7.39;99.99
71297;SHT31;59082;50.658;4.608;2023-02-23T21:38:48;7.37;99.99
71297;SHT31;59082;50.658;4.608;2023-02-23T21:41:14;7.40;99.99
71297;SHT31;59082;50.658;4.608;2023-02-23T21:43:42;7.39;99.99
71297;SHT31;59082;50.658;4.608;2023-02-23T21:46:12;7.39;99.99
71297;SHT31;59082;50.658;4.608;2023-02-23T21:48:38;7.37;99.99
71297;SHT31;59082;50.658;4.608;2023-02-23T21:51:07;7.37;99.99
71297;SHT31;59082;50.658;4.608;2023-02-23T21:53:34;7.40;99.99
71297;SHT31;59082;50.658;4.608;2023-02-23T21:56:13;7.39;99.99
71297;SHT31;59082;50.658;4.608;2023-02-23T21:58:43;7.40;99.99
71297;SHT31;59082;50.658;4.608;2023-02-23T22:01:15;7.49;99.99
71297;SHT31;59082;50.658;4.608;2023-02-23T22:03:41;7.47;99.99
71297;SHT31;59082;50.658;4.608;2023-02-23T22:06:20;7.52;99.99
71297;SHT31;59082;50.658;4.608;2023-02-23T22:08:46;7.50;99.99
71297;SHT31;59082;50.658;4.608;2023-02-23T22:11:16;7.45;99.99
71297;SHT31;59082;50.658;4.608;2023-02-23T22:13:46;7.36;99.99
71297;SHT31;59082;50.658;4.608;2023-02-23T22:16:14;7.30;99.99
71297;SHT31;59082;50.658;4.608;2023-02-23T22:18:40;7.09;99.99
71297;SHT31;59082;50.658;4.608;2023-02-23T22:21:07;7.09;99.99
71297;SHT31;59082;50.658;4.608;2023-02-23T22:23:34;7.11;99.99
